createdAt,value
2023-02-06T00:01:25.022Z,12.20
2023-02-06T00:03:51.702Z,13.30
2023-02-06T00:06:18.489Z,12.83
2023-02-06T00:08:45.154Z,11.20
2023-02-06T00:11:14.224Z,12.23
2023-02-06T00:13:40.809Z,11.30
2023-02-06T00:16:19.715Z,13.07
2023-02-06T00:18:46.624Z,11.20
2023-02-06T00:21:14.050Z,13.50
2023-02-06T00:23:40.880Z,14.37
2023-02-06T00:26:07.824Z,10.83
2023-02-06T00:28:34.473Z,14.67
2023-02-06T00:31:01.245Z,11.80
2023-02-06T00:33:27.859Z,11.17
2023-02-06T00:35:54.474Z,13.13
2023-02-06T00:38:21.081Z,12.10
2023-02-06T00:40:47.681Z,12.00
2023-02-06T00:43:14.510Z,10.60
2023-02-06T00:45:41.130Z,9.07
2023-02-06T00:48:09.141Z,11.80
2023-02-06T00:50:36.938Z,8.57
2023-02-06T00:53:03.557Z,11.23
2023-02-06T00:55:30.153Z,10.87
2023-02-06T00:57:56.750Z,9.47
2023-02-06T01:00:23.529Z,12.97
2023-02-06T01:02:50.157Z,12.40
2023-02-06T01:05:16.950Z,9.40
2023-02-06T01:07:43.740Z,10.80
2023-02-06T01:10:11.575Z,10.37
2023-02-06T01:12:39.570Z,9.87
2023-02-06T01:15:08.420Z,9.30
2023-02-06T01:17:38.435Z,12.17
2023-02-06T01:20:07.590Z,10.27
2023-02-06T01:22:37.116Z,9.10
2023-02-06T01:25:05.548Z,10.07
2023-02-06T01:27:34.838Z,11.33
2023-02-06T01:30:01.498Z,11.27
2023-02-06T01:32:28.113Z,12.23
2023-02-06T01:34:54.690Z,9.73
2023-02-06T01:37:21.383Z,13.70
2023-02-06T01:39:48.013Z,14.20
2023-02-06T01:42:14.638Z,11.27
2023-02-06T01:44:42.036Z,13.40
2023-02-06T01:47:10.728Z,10.97
2023-02-06T01:49:46.116Z,14.60
2023-02-06T01:52:23.616Z,10.83
2023-02-06T01:54:57.854Z,10.50
2023-02-06T01:57:25.382Z,10.07
2023-02-06T01:59:57.617Z,11.23
2023-02-06T02:02:27.294Z,9.87
2023-02-06T02:04:55.086Z,10.73
2023-02-06T02:07:24.190Z,11.53
2023-02-06T02:09:52.583Z,9.33
2023-02-06T02:12:19.956Z,10.30
2023-02-06T02:14:49.064Z,9.83
2023-02-06T02:17:37.195Z,12.97
2023-02-06T02:20:25.660Z,11.33
2023-02-06T02:22:58.162Z,9.87
2023-02-06T02:25:55.514Z,9.13
2023-02-06T02:28:34.122Z,12.53
2023-02-06T02:31:55.399Z,9.73
2023-02-06T02:34:47.278Z,10.97
2023-02-06T02:37:43.554Z,9.60
2023-02-06T02:40:29.133Z,12.40
2023-02-06T02:43:05.734Z,14.03
2023-02-06T02:45:48.236Z,10.93
2023-02-06T02:48:20.394Z,11.30
2023-02-06T02:50:47.625Z,9.67
2023-02-06T02:53:14.841Z,12.87
2023-02-06T02:55:42.018Z,9.80
2023-02-06T02:58:13.113Z,8.30
2023-02-06T03:00:49.176Z,11.00
2023-02-06T03:03:22.025Z,9.10
2023-02-06T03:06:12.841Z,10.43
2023-02-06T03:08:56.089Z,12.17
2023-02-06T03:11:23.607Z,15.33
2023-02-06T03:14:00.546Z,11.07
2023-02-06T03:16:38.150Z,9.20
2023-02-06T03:19:16.530Z,10.93
2023-02-06T03:21:45.158Z,10.63
2023-02-06T03:24:19.461Z,11.23
2023-02-06T03:26:50.690Z,9.17
2023-02-06T03:29:18.750Z,10.90
2023-02-06T03:31:52.265Z,9.90
2023-02-06T03:34:44.484Z,14.47
2023-02-06T03:37:12.370Z,12.23
2023-02-06T03:39:39.937Z,13.90
2023-02-06T03:42:08.710Z,12.50
2023-02-06T03:44:39.257Z,12.80
2023-02-06T03:47:08.000Z,11.10
2023-02-06T03:49:37.701Z,11.63
2023-02-06T03:52:04.358Z,9.50
2023-02-06T03:54:32.230Z,13.20
2023-02-06T03:57:02.662Z,10.30
2023-02-06T03:59:30.117Z,11.73
2023-02-06T04:02:03.044Z,15.80
2023-02-06T04:04:34.344Z,12.67
2023-02-06T04:07:07.207Z,14.47
2023-02-06T04:09:33.850Z,10.43
2023-02-06T04:12:00.478Z,8.07
2023-02-06T04:14:27.104Z,15.03
2023-02-06T04:16:53.743Z,12.07
2023-02-06T04:19:20.336Z,13.80
2023-02-06T04:21:46.998Z,13.23
2023-02-06T04:24:13.586Z,12.47
2023-02-06T04:26:40.203Z,11.73
2023-02-06T04:29:06.870Z,19.70
2023-02-06T04:31:33.863Z,15.57
2023-02-06T04:34:00.453Z,13.00
2023-02-06T04:36:27.084Z,13.60
2023-02-06T04:38:53.689Z,14.67
2023-02-06T04:41:20.393Z,16.33
2023-02-06T04:43:46.975Z,14.10
2023-02-06T04:46:13.672Z,12.90
2023-02-06T04:48:40.411Z,11.93
2023-02-06T04:51:07.058Z,17.00
2023-02-06T04:53:33.938Z,12.27
2023-02-06T04:56:05.594Z,12.43
2023-02-06T04:58:32.650Z,16.83
2023-02-06T05:00:59.405Z,12.00
2023-02-06T05:03:26.166Z,12.20
2023-02-06T05:05:53.047Z,12.30
2023-02-06T05:08:19.703Z,15.30
2023-02-06T05:10:46.349Z,13.63
2023-02-06T05:13:13.076Z,11.93
2023-02-06T05:15:40.126Z,14.80
2023-02-06T05:18:07.073Z,14.03
2023-02-06T05:20:33.673Z,15.77
2023-02-06T05:23:00.269Z,12.87
2023-02-06T05:25:26.915Z,12.83
2023-02-06T05:27:53.639Z,12.40
2023-02-06T05:30:20.343Z,17.17
2023-02-06T05:32:46.920Z,10.83
2023-02-06T05:35:13.514Z,18.77
2023-02-06T05:37:40.200Z,16.73
2023-02-06T05:40:08.425Z,14.07
2023-02-06T05:42:35.105Z,14.80
2023-02-06T05:45:01.860Z,15.63
2023-02-06T05:47:28.600Z,16.80
2023-02-06T05:49:55.214Z,19.70
2023-02-06T05:52:21.880Z,13.53
2023-02-06T05:54:48.531Z,15.03
2023-02-06T05:57:15.125Z,15.70
2023-02-06T05:59:41.718Z,15.13
2023-02-06T06:02:08.793Z,17.83
2023-02-06T06:04:35.393Z,16.23
2023-02-06T06:07:02.118Z,17.00
2023-02-06T06:09:28.741Z,14.57
2023-02-06T06:11:55.410Z,15.67
2023-02-06T06:14:22.042Z,17.17
2023-02-06T06:16:48.869Z,13.80
2023-02-06T06:19:15.537Z,15.03
2023-02-06T06:21:42.166Z,15.33
2023-02-06T06:24:08.859Z,18.03
2023-02-06T06:26:35.756Z,14.87
2023-02-06T06:29:02.552Z,14.23
2023-02-06T06:31:29.246Z,17.37
2023-02-06T06:33:55.949Z,13.73
2023-02-06T06:36:22.751Z,18.70
2023-02-06T06:38:49.373Z,18.40
2023-02-06T06:41:15.995Z,21.13
2023-02-06T06:43:43.250Z,17.47
2023-02-06T06:46:10.077Z,17.10
2023-02-06T06:48:38.150Z,15.03
2023-02-06T06:51:05.510Z,15.50
2023-02-06T06:53:32.252Z,19.73
2023-02-06T06:56:03.955Z,18.00
2023-02-06T06:58:30.627Z,19.27
2023-02-06T07:00:57.354Z,17.67
2023-02-06T07:03:24.141Z,19.97
2023-02-06T07:05:53.158Z,16.30
2023-02-06T07:08:19.903Z,16.37
2023-02-06T07:10:47.698Z,21.53
2023-02-06T07:13:15.569Z,18.67
2023-02-06T07:15:42.950Z,19.43
2023-02-06T07:18:11.643Z,15.47
2023-02-06T07:20:38.582Z,13.30
2023-02-06T07:23:06.052Z,22.20
2023-02-06T07:25:32.946Z,17.93
2023-02-06T07:27:59.648Z,15.63
2023-02-06T07:30:26.412Z,14.27
2023-02-06T07:32:53.025Z,20.00
2023-02-06T07:35:19.706Z,18.27
2023-02-06T07:37:46.346Z,15.90
2023-02-06T07:40:13.187Z,16.80
2023-02-06T07:42:40.382Z,21.67
2023-02-06T07:45:19.785Z,16.67
2023-02-06T07:47:46.454Z,18.57
2023-02-06T07:50:13.100Z,21.33
2023-02-06T07:52:39.784Z,16.87
2023-02-06T07:55:06.622Z,17.70
2023-02-06T07:57:33.251Z,21.10
2023-02-06T07:59:59.891Z,23.07
2023-02-06T08:02:26.515Z,18.03
2023-02-06T08:04:53.102Z,12.30
2023-02-06T08:07:19.719Z,18.60
2023-02-06T08:09:46.461Z,18.70
2023-02-06T08:12:13.090Z,22.70
2023-02-06T08:14:39.751Z,19.47
2023-02-06T08:17:07.554Z,17.17
2023-02-06T08:19:34.178Z,16.57
2023-02-06T08:22:00.775Z,18.13
2023-02-06T08:24:27.438Z,24.23
2023-02-06T08:26:54.112Z,18.13
2023-02-06T08:29:20.734Z,19.00
2023-02-06T08:31:47.555Z,18.23
2023-02-06T08:34:14.940Z,14.97
2023-02-06T08:36:43.692Z,21.60
2023-02-06T08:39:13.756Z,25.43
2023-02-06T08:41:44.714Z,15.60
2023-02-06T08:44:15.958Z,15.73
2023-02-06T08:46:44.376Z,17.07
2023-02-06T08:49:16.148Z,20.50
2023-02-06T08:51:43.525Z,17.30
2023-02-06T08:54:18.913Z,19.97
2023-02-06T08:56:46.296Z,18.37
2023-02-06T08:59:15.517Z,15.37
2023-02-06T09:01:42.707Z,19.33
2023-02-06T09:04:10.769Z,16.37
2023-02-06T09:06:40.248Z,14.20
2023-02-06T09:09:09.218Z,16.40
2023-02-06T09:11:36.428Z,16.60
2023-02-06T09:14:05.761Z,15.50
2023-02-06T09:16:37.588Z,16.20
2023-02-06T09:19:04.850Z,17.27
2023-02-06T09:21:34.031Z,15.03
2023-02-06T09:24:03.796Z,14.90
2023-02-06T09:26:33.913Z,15.40
2023-02-06T09:29:05.390Z,16.97
2023-02-06T09:31:32.091Z,15.37
2023-02-06T09:34:00.360Z,16.77
2023-02-06T09:36:27.488Z,19.70
2023-02-06T09:38:57.082Z,19.10
2023-02-06T09:41:26.770Z,19.43
2023-02-06T09:44:07.752Z,13.83
2023-02-06T09:46:36.901Z,17.27
2023-02-06T09:49:12.814Z,18.77
2023-02-06T09:51:44.177Z,22.33
2023-02-06T09:54:36.085Z,20.33
2023-02-06T09:57:12.738Z,19.47
2023-02-06T09:59:44.905Z,15.53
2023-02-06T10:02:24.519Z,22.17
2023-02-06T10:05:01.563Z,14.83
2023-02-06T10:07:51.000Z,17.07
2023-02-06T10:10:39.193Z,15.33
2023-02-06T10:13:14.226Z,18.67
2023-02-06T10:15:46.494Z,14.87
2023-02-06T10:18:36.060Z,18.47
2023-02-06T10:21:14.105Z,14.23
2023-02-06T10:24:04.374Z,15.23
2023-02-06T10:26:34.434Z,11.80
2023-02-06T10:29:01.114Z,17.23
2023-02-06T10:31:45.008Z,13.40
2023-02-06T10:34:32.862Z,17.90
2023-02-06T10:37:24.326Z,12.57
2023-02-06T10:40:09.966Z,14.87
2023-02-06T10:42:51.938Z,15.53
2023-02-06T10:45:24.407Z,11.00
2023-02-06T10:47:57.258Z,15.17
2023-02-06T10:50:31.663Z,19.00
2023-02-06T10:53:06.273Z,15.40
2023-02-06T10:55:46.047Z,16.50
2023-02-06T10:58:31.134Z,15.83
2023-02-06T11:00:59.717Z,15.00
2023-02-06T11:03:31.885Z,18.17
2023-02-06T11:06:01.618Z,19.20
2023-02-06T11:08:40.322Z,13.77
2023-02-06T11:11:22.941Z,15.83
2023-02-06T11:13:55.354Z,16.97
2023-02-06T11:16:26.191Z,15.07
2023-02-06T11:18:55.434Z,14.60
2023-02-06T11:21:46.724Z,12.47
2023-02-06T11:24:15.638Z,18.67
2023-02-06T11:26:54.809Z,15.10
2023-02-06T11:29:25.594Z,13.03
2023-02-06T11:31:58.550Z,14.80
2023-02-06T11:34:32.800Z,14.60
2023-02-06T11:37:05.933Z,12.10
2023-02-06T11:39:38.340Z,11.53
2023-02-06T11:42:18.217Z,11.87
2023-02-06T11:44:48.438Z,14.90
2023-02-06T11:47:33.501Z,3.03
2023-02-06T11:50:22.467Z,14.53
2023-02-06T11:52:49.554Z,10.43
2023-02-06T11:55:28.313Z,12.30
2023-02-06T11:58:22.588Z,10.70
2023-02-06T12:00:52.158Z,4.37
2023-02-06T12:03:50.530Z,9.77
2023-02-06T12:06:31.703Z,11.97
2023-02-06T12:09:01.324Z,8.23
2023-02-06T12:11:46.042Z,9.63
2023-02-06T12:14:21.741Z,8.10
2023-02-06T12:16:48.753Z,7.37
2023-02-06T12:19:26.483Z,8.77
2023-02-06T12:22:23.271Z,8.80
2023-02-06T12:24:53.584Z,8.80
2023-02-06T12:27:37.245Z,11.63
2023-02-06T12:30:29.570Z,9.53
2023-02-06T12:33:07.070Z,12.87
2023-02-06T12:35:44.750Z,9.77
2023-02-06T12:38:40.417Z,9.87
2023-02-06T12:41:17.112Z,8.20
2023-02-06T12:43:48.689Z,10.20
2023-02-06T12:46:17.983Z,12.63
2023-02-06T12:49:02.124Z,10.50
2023-02-06T12:51:51.623Z,9.90
2023-02-06T12:54:39.660Z,8.23
2023-02-06T12:57:26.821Z,2.97
2023-02-06T13:00:22.464Z,7.33
2023-02-06T13:03:27.021Z,12.33
2023-02-06T13:06:02.448Z,8.83
2023-02-06T13:08:38.214Z,13.90
2023-02-06T13:11:14.478Z,4.87
2023-02-06T13:13:42.075Z,11.07
2023-02-06T13:16:09.905Z,9.03
2023-02-06T13:18:52.553Z,7.40
2023-02-06T13:21:24.589Z,11.50
2023-02-06T13:24:03.598Z,10.77
2023-02-06T13:26:53.210Z,9.07
2023-02-06T13:29:27.811Z,11.47
2023-02-06T13:32:15.561Z,12.90
2023-02-06T13:34:45.049Z,11.43
2023-02-06T13:37:37.121Z,14.90
2023-02-06T13:40:26.424Z,11.63
2023-02-06T13:43:04.627Z,12.23
2023-02-06T13:45:42.498Z,10.83
2023-02-06T13:48:39.969Z,10.93
2023-02-06T13:51:31.329Z,10.87
2023-02-06T13:54:06.882Z,10.80
2023-02-06T13:56:43.571Z,11.97
2023-02-06T13:59:25.054Z,12.43
2023-02-06T14:01:52.661Z,9.17
2023-02-06T14:04:26.734Z,11.27
2023-02-06T14:07:29.825Z,14.07
2023-02-06T14:10:21.404Z,16.77
2023-02-06T14:13:24.672Z,11.83
2023-02-06T14:15:54.408Z,13.97
2023-02-06T14:18:54.724Z,13.30
2023-02-06T14:21:38.556Z,10.33
2023-02-06T14:24:31.349Z,9.27
2023-02-06T14:27:06.596Z,13.70
2023-02-06T14:30:03.358Z,12.87
2023-02-06T14:33:10.357Z,12.80
2023-02-06T14:35:54.476Z,13.07
2023-02-06T14:38:39.732Z,11.70
2023-02-06T14:41:06.746Z,13.93
2023-02-06T14:43:37.792Z,10.07
2023-02-06T14:46:09.647Z,12.93
2023-02-06T14:48:42.363Z,11.87
2023-02-06T14:51:21.519Z,13.37
2023-02-06T14:53:54.718Z,11.40
2023-02-06T14:56:33.103Z,15.97
2023-02-06T14:59:15.987Z,9.67
2023-02-06T15:01:45.295Z,10.20
2023-02-06T15:04:16.149Z,12.03
2023-02-06T15:06:50.346Z,11.50
2023-02-06T15:09:46.461Z,12.13
2023-02-06T15:12:23.685Z,10.00
2023-02-06T15:14:56.469Z,10.23
2023-02-06T15:17:26.363Z,9.07
2023-02-06T15:19:53.127Z,8.87
2023-02-06T15:22:29.053Z,9.47
2023-02-06T15:25:14.441Z,8.10
2023-02-06T15:27:41.144Z,10.67
2023-02-06T15:30:26.836Z,10.83
2023-02-06T15:32:56.627Z,9.80
2023-02-06T15:35:28.672Z,8.57
2023-02-06T15:37:56.649Z,8.60
2023-02-06T15:40:31.820Z,8.90
2023-02-06T15:42:59.679Z,13.53
2023-02-06T15:45:30.732Z,9.93
2023-02-06T15:48:01.642Z,12.13
2023-02-06T15:50:28.647Z,8.53
2023-02-06T15:52:56.249Z,6.73
2023-02-06T15:55:33.030Z,13.60
2023-02-06T15:58:01.935Z,11.17
2023-02-06T16:00:31.962Z,11.60
2023-02-06T16:03:06.113Z,10.20
2023-02-06T16:05:40.514Z,9.47
2023-02-06T16:08:20.126Z,9.50
2023-02-06T16:10:51.834Z,10.13
2023-02-06T16:13:23.529Z,10.00
2023-02-06T16:16:11.393Z,12.60
2023-02-06T16:18:39.927Z,11.87
2023-02-06T16:21:18.540Z,12.27
2023-02-06T16:23:52.575Z,11.93
2023-02-06T16:26:25.522Z,11.17
2023-02-06T16:29:10.193Z,10.97
2023-02-06T16:31:39.769Z,12.03
2023-02-06T16:34:38.868Z,9.27
2023-02-06T16:37:12.022Z,11.30
2023-02-06T16:39:42.225Z,11.10
2023-02-06T16:42:18.807Z,9.00
2023-02-06T16:44:52.968Z,9.53
2023-02-06T16:47:21.367Z,8.13
2023-02-06T16:49:48.287Z,8.53
2023-02-06T16:52:19.493Z,9.77
2023-02-06T16:54:46.816Z,9.57
2023-02-06T16:57:34.974Z,17.43
2023-02-06T17:00:05.450Z,10.47
2023-02-06T17:02:32.063Z,11.10
2023-02-06T17:04:58.667Z,10.53
2023-02-06T17:07:27.723Z,11.27
2023-02-06T17:09:56.664Z,8.63
2023-02-06T17:12:23.324Z,13.57
2023-02-06T17:14:50.099Z,12.40
2023-02-06T17:17:20.892Z,12.83
2023-02-06T17:19:48.341Z,13.73
2023-02-06T17:22:15.798Z,14.07
2023-02-06T17:24:42.947Z,13.77
2023-02-06T17:27:15.361Z,14.27
2023-02-06T17:29:41.992Z,11.30
2023-02-06T17:32:09.206Z,12.23
2023-02-06T17:34:37.370Z,12.33
2023-02-06T17:37:04.739Z,14.07
2023-02-06T17:39:31.350Z,14.33
2023-02-06T17:41:57.979Z,11.80
2023-02-06T17:44:24.600Z,11.07
2023-02-06T17:46:51.568Z,10.63
2023-02-06T17:49:18.212Z,12.13
2023-02-06T17:51:45.909Z,11.33
2023-02-06T17:54:12.946Z,10.33
2023-02-06T17:56:39.818Z,11.63
2023-02-06T17:59:06.441Z,11.93
2023-02-06T18:01:33.358Z,10.67
2023-02-06T18:04:00.929Z,13.03
2023-02-06T18:06:31.358Z,15.33
2023-02-06T18:08:57.943Z,14.23
2023-02-06T18:11:24.537Z,14.50
2023-02-06T18:13:51.253Z,13.67
2023-02-06T18:16:24.926Z,14.33
2023-02-06T18:18:51.851Z,10.67
2023-02-06T18:21:19.556Z,11.73
2023-02-06T18:23:48.000Z,13.23
2023-02-06T18:26:15.220Z,11.70
2023-02-06T18:28:41.870Z,14.93
2023-02-06T18:31:27.288Z,12.93
2023-02-06T18:33:55.295Z,14.77
2023-02-06T18:36:23.415Z,18.47
2023-02-06T18:38:50.240Z,12.67
2023-02-06T18:41:36.209Z,13.73
2023-02-06T18:44:07.694Z,14.67
2023-02-06T18:46:34.533Z,16.57
2023-02-06T18:49:01.459Z,19.83
2023-02-06T18:51:29.347Z,17.27
2023-02-06T18:53:57.699Z,17.53
2023-02-06T18:56:24.465Z,11.73
2023-02-06T18:58:51.110Z,13.43
2023-02-06T19:01:20.980Z,14.57
2023-02-06T19:03:48.773Z,14.53
2023-02-06T19:06:31.801Z,12.20
2023-02-06T19:08:59.447Z,11.67
2023-02-06T19:11:26.467Z,14.57
2023-02-06T19:13:53.270Z,12.87
2023-02-06T19:16:20.791Z,13.63
2023-02-06T19:18:48.702Z,15.37
2023-02-06T19:21:18.225Z,16.03
2023-02-06T19:23:46.468Z,12.83
2023-02-06T19:26:15.699Z,14.73
2023-02-06T19:28:43.126Z,13.70
2023-02-06T19:31:10.917Z,13.63
2023-02-06T19:33:39.260Z,14.87
2023-02-06T19:36:12.227Z,13.20
2023-02-06T19:38:39.240Z,13.60
2023-02-06T19:41:11.523Z,11.97
2023-02-06T19:43:38.827Z,13.73
2023-02-06T19:46:08.308Z,11.20
2023-02-06T19:48:35.253Z,11.43
2023-02-06T19:51:06.927Z,12.30
2023-02-06T19:53:34.224Z,14.40
2023-02-06T19:56:01.636Z,9.97
2023-02-06T19:58:30.897Z,10.00
2023-02-06T20:00:59.032Z,11.83
2023-02-06T20:03:25.945Z,12.00
2023-02-06T20:05:52.595Z,9.20
2023-02-06T20:08:19.252Z,9.37
2023-02-06T20:10:45.920Z,12.53
2023-02-06T20:13:12.634Z,13.63
2023-02-06T20:15:39.249Z,10.93
2023-02-06T20:18:06.167Z,13.00
2023-02-06T20:20:36.356Z,13.97
2023-02-06T20:23:03.518Z,12.60
2023-02-06T20:25:30.302Z,10.93
2023-02-06T20:27:56.958Z,14.77
2023-02-06T20:30:24.215Z,11.13
2023-02-06T20:32:50.906Z,13.30
2023-02-06T20:35:17.566Z,16.07
2023-02-06T20:37:44.161Z,13.80
2023-02-06T20:40:11.038Z,14.17
2023-02-06T20:42:42.062Z,13.30
2023-02-06T20:45:08.729Z,16.77
2023-02-06T20:47:35.368Z,16.43
2023-02-06T20:50:02.019Z,16.27
2023-02-06T20:52:29.546Z,14.37
2023-02-06T20:54:56.155Z,16.67
2023-02-06T20:57:22.973Z,14.27
2023-02-06T20:59:49.570Z,14.67
2023-02-06T21:02:16.430Z,16.20
2023-02-06T21:04:43.110Z,18.10
2023-02-06T21:07:09.759Z,19.33
2023-02-06T21:09:36.465Z,20.53
2023-02-06T21:12:03.511Z,16.43
2023-02-06T21:14:30.137Z,16.27
2023-02-06T21:16:57.646Z,14.67
2023-02-06T21:19:26.624Z,11.57
2023-02-06T21:21:53.242Z,12.63
2023-02-06T21:24:20.006Z,11.50
2023-02-06T21:26:47.170Z,12.33
2023-02-06T21:29:14.860Z,13.20
2023-02-06T21:31:42.187Z,11.90
2023-02-06T21:34:16.138Z,12.97
2023-02-06T21:36:43.386Z,12.50
2023-02-06T21:39:14.212Z,13.87
2023-02-06T21:41:40.867Z,14.70
2023-02-06T21:44:07.537Z,14.27
2023-02-06T21:46:34.399Z,18.07
2023-02-06T21:49:01.191Z,10.30
2023-02-06T21:51:28.196Z,9.60
2023-02-06T21:53:56.331Z,14.20
2023-02-06T21:56:25.990Z,10.57
2023-02-06T21:58:53.135Z,11.60
2023-02-06T22:01:26.064Z,10.20
2023-02-06T22:03:53.492Z,8.87
2023-02-06T22:06:20.711Z,10.53
2023-02-06T22:08:51.771Z,13.50
2023-02-06T22:11:24.328Z,9.93
2023-02-06T22:13:51.890Z,10.07
2023-02-06T22:16:22.011Z,14.60
2023-02-06T22:18:48.940Z,10.40
2023-02-06T22:21:18.140Z,9.27
2023-02-06T22:23:46.409Z,14.47
2023-02-06T22:26:14.957Z,12.00
2023-02-06T22:28:41.919Z,8.70
2023-02-06T22:31:15.000Z,10.90
2023-02-06T22:33:41.969Z,9.73
2023-02-06T22:36:11.979Z,8.40
2023-02-06T22:38:39.343Z,9.47
2023-02-06T22:41:08.881Z,10.33
2023-02-06T22:43:37.302Z,13.20
2023-02-06T22:46:05.292Z,11.27
2023-02-06T22:48:32.746Z,11.87
2023-02-06T22:51:07.474Z,9.50
2023-02-06T22:53:34.204Z,11.77
2023-02-06T22:56:20.506Z,11.43
2023-02-06T22:58:48.333Z,10.77
2023-02-06T23:01:17.336Z,10.00
2023-02-06T23:03:44.260Z,9.77
2023-02-06T23:06:15.572Z,8.93
2023-02-06T23:08:45.753Z,11.40
2023-02-06T23:11:13.480Z,9.43
2023-02-06T23:13:41.170Z,11.03
2023-02-06T23:16:08.958Z,10.53
2023-02-06T23:18:36.177Z,9.30
2023-02-06T23:21:06.424Z,11.43
2023-02-06T23:23:34.819Z,9.63
2023-02-06T23:26:01.543Z,12.17
2023-02-06T23:28:28.707Z,9.27
2023-02-06T23:30:55.425Z,10.73
2023-02-06T23:33:23.228Z,10.23
2023-02-06T23:35:50.326Z,8.40
2023-02-06T23:38:18.243Z,9.27
2023-02-06T23:40:45.588Z,11.20
2023-02-06T23:43:12.204Z,9.90
2023-02-06T23:45:40.375Z,10.10
2023-02-06T23:48:07.251Z,11.40
2023-02-06T23:50:33.890Z,10.67
2023-02-06T23:53:00.518Z,8.67
2023-02-06T23:55:28.332Z,9.73
2023-02-06T23:57:55.002Z,10.03
